Time;durP1;ratioP1;P1;durP2;ratioP2;P2;SDS_P1;SDS_P2;PMS_P1;PMS_P2;Temp;Humidity;BMP_temperature;BMP_pressure;BME280_temperature;BME280_humidity;BME280_pressure;Samples;Min_cycle;Max_cycle;Signal;HPM_P1;HPM_P2
2023/11/15 00:01:02;;;;;;;;;;;;;;;;;;6279256;28;20434;-85
2023/11/15 00:04:03;;;;;;;;;;;;;;;;;;6276279;28;20343;-87
2023/11/15 00:07:03;;;;;;;;;;;;;;;;;;6277875;28;20513;-87
2023/11/15 00:10:03;;;;;;;;;;;;;;;;;;6279336;28;20326;-85
2023/11/15 00:13:04;;;;;;;;;;;;;;;;;;6276525;28;19916;-84
2023/11/15 00:16:04;;;;;;;;;;;;;;;;;;6277129;28;19913;-85
2023/11/15 00:19:07;;;;;;;;;;;;;;;;;;6275622;28;19921;-85
2023/11/15 00:22:07;;;;;;;;;;;;;;;;;;6277598;28;20012;-85
2023/11/15 00:25:07;;;;;;;;;;;;;;;;;;5924244;28;9999948;-86
2023/11/15 00:28:08;;;;;;;;;;;;;;;;;;6289534;28;19948;-84
2023/11/15 00:31:09;;;;;;;;;;;;;;;;;;6292241;28;19909;-84
2023/11/15 00:34:10;;;;;;;;;;;;;;;;;;6278083;28;20365;-86
2023/11/15 00:37:10;;;;;;;;;;;;;;;;;;6295047;28;19908;-85
2023/11/15 00:40:13;;;;;;;;;;;;;;;;;;6295813;28;19920;-85
2023/11/15 00:43:15;;;;;;;;;;;;;;;;;;6294226;28;19908;-85
2023/11/15 00:46:15;;;;;;;;;;;;;;;;;;6300373;28;19909;-85
2023/11/15 00:49:15;;;;;;;;;;;;;;;;;;6298243;28;19913;-85
2023/11/15 00:52:15;;;;;;;;;;;;;;;;;;6297935;28;19909;-85
2023/11/15 00:55:16;;;;;;;;;;;;;;;;;;6316399;28;19912;-84
2023/11/15 00:58:17;;;;;;;;;;;;;;;;;;6309961;28;19916;-84
2023/11/15 01:01:17;;;;;;;;;;;;;;;;;;6297690;28;20365;-85
2023/11/15 01:04:18;;;;;;;;;;;;;;;;;;6292372;28;20487;-86
2023/11/15 01:07:18;;;;;;;;;;;;;;;;;;6299125;28;19912;-85
2023/11/15 01:10:19;;;;;;;;;;;;;;;;;;6289555;28;20369;-84
2023/11/15 01:13:19;;;;;;;;;;;;;;;;;;6296889;28;20015;-84
2023/11/15 01:16:22;;;;;;;;;;;;;;;;;;6278357;28;19923;-85
2023/11/15 01:19:22;;;;;;;;;;;;;;;;;;6291396;28;20405;-85
2023/11/15 01:22:22;;;;;;;;;;;;;;;;;;6272821;28;19913;-85
2023/11/15 01:25:22;;;;;;;;;;;;;;;;;;6284869;28;19917;-84
2023/11/15 01:28:22;;;;;;;;;;;;;;;;;;6275861;28;19913;-85
2023/11/15 01:31:23;;;;;;;;;;;;;;;;;;6283257;28;19978;-86
2023/11/15 01:34:23;;;;;;;;;;;;;;;;;;6282810;28;20377;-85
2023/11/15 01:37:23;;;;;;;;;;;;;;;;;;6296129;28;20332;-84
2023/11/15 01:40:23;;;;;;;;;;;;;;;;;;6297222;28;19971;-85
2023/11/15 01:43:24;;;;;;;;;;;;;;;;;;6277687;28;19966;-85
2023/11/15 01:46:24;;;;;;;;;;;;;;;;;;6302371;28;20372;-85
2023/11/15 01:49:24;;;;;;;;;;;;;;;;;;6278932;28;19975;-85
2023/11/15 01:52:24;;;;;;;;;;;;;;;;;;6295494;28;19919;-85
2023/11/15 01:55:24;;;;;;;;;;;;;;;;;;6276469;28;19908;-86
2023/11/15 01:58:28;;;;;;;;;;;;;;;;;;6272626;28;19909;-84
2023/11/15 02:01:28;;;;;;;;;;;;;;;;;;6286262;28;20057;-85
2023/11/15 02:04:28;;;;;;;;;;;;;;;;;;6288903;28;19913;-86
2023/11/15 02:07:28;;;;;;;;;;;;;;;;;;6300488;28;20364;-85
2023/11/15 02:10:28;;;;;;;;;;;;;;;;;;6291304;28;20329;-86
2023/11/15 02:13:28;;;;;;;;;;;;;;;;;;6294599;28;19947;-86
2023/11/15 02:16:29;;;;;;;;;;;;;;;;;;6296368;28;19916;-85
2023/11/15 02:19:29;;;;;;;;;;;;;;;;;;6285967;28;20114;-86
2023/11/15 02:22:30;;;;;;;;;;;;;;;;;;6273226;28;19913;-85
2023/11/15 02:25:30;;;;;;;;;;;;;;;;;;6287613;28;20016;-85
2023/11/15 02:28:30;;;;;;;;;;;;;;;;;;6290193;28;20390;-86
2023/11/15 02:31:31;;;;;;;;;;;;;;;;;;6292774;28;19924;-85
2023/11/15 02:34:32;;;;;;;;;;;;;;;;;;6283084;28;19924;-85
2023/11/15 02:37:33;;;;;;;;;;;;;;;;;;6300957;28;19913;-85
2023/11/15 02:40:33;;;;;;;;;;;;;;;;;;6300618;28;20011;-85
2023/11/15 02:43:34;;;;;;;;;;;;;;;;;;6301175;28;19923;-85
2023/11/15 02:46:34;;;;;;;;;;;;;;;;;;6320824;28;19908;-85
2023/11/15 02:49:36;;;;;;;;;;;;;;;;;;6315582;28;19916;-86
2023/11/15 02:52:36;;;;;;;;;;;;;;;;;;6290006;28;20304;-85
2023/11/15 02:55:37;;;;;;;;;;;;;;;;;;6326037;28;19939;-85
2023/11/15 02:58:37;;;;;;;;;;;;;;;;;;6326076;28;19912;-85
2023/11/15 03:01:37;;;;;;;;;;;;;;;;;;6318364;28;19990;-85
2023/11/15 03:04:37;;;;;;;;;;;;;;;;;;6293937;28;19932;-86
2023/11/15 03:07:38;;;;;;;;;;;;;;;;;;6305018;28;20002;-85
2023/11/15 03:10:38;;;;;;;;;;;;;;;;;;6290558;28;20011;-85
2023/11/15 03:13:38;;;;;;;;;;;;;;;;;;6300872;28;19955;-85
2023/11/15 03:16:39;;;;;;;;;;;;;;;;;;6297815;28;19919;-85
2023/11/15 03:19:40;;;;;;;;;;;;;;;;;;6287646;28;20308;-85
2023/11/15 03:22:40;;;;;;;;;;;;;;;;;;6283504;28;19917;-84
2023/11/15 03:25:40;;;;;;;;;;;;;;;;;;6281226;28;19917;-85
2023/11/15 03:28:40;;;;;;;;;;;;;;;;;;6285100;28;20396;-87
2023/11/15 03:31:40;;;;;;;;;;;;;;;;;;6285823;28;19924;-86
2023/11/15 03:34:41;;;;;;;;;;;;;;;;;;6282479;28;20003;-86
2023/11/15 03:37:41;;;;;;;;;;;;;;;;;;6278012;28;19923;-86
2023/11/15 03:40:41;;;;;;;;;;;;;;;;;;6279125;28;20431;-79
2023/11/15 03:43:42;;;;;;;;;;;;;;;;;;6290092;28;19936;-79
2023/11/15 03:46:42;;;;;;;;;;;;;;;;;;6301496;28;20444;-80
2023/11/15 03:49:42;;;;;;;;;;;;;;;;;;6274115;28;19923;-80
2023/11/15 03:52:42;;;;;;;;;;;;;;;;;;6280110;28;20399;-80
2023/11/15 03:55:42;;;;;;;;;;;;;;;;;;6286501;28;20260;-79
2023/11/15 03:58:43;;;;;;;;;;;;;;;;;;6280579;28;19913;-80
2023/11/15 04:01:44;;;;;;;;;;;;;;;;;;6284388;28;19920;-80
2023/11/15 04:04:44;;;;;;;;;;;;;;;;;;6279406;28;19974;-80
2023/11/15 04:07:44;;;;;;;;;;;;;;;;;;6289878;28;20362;-79
2023/11/15 04:10:44;;;;;;;;;;;;;;;;;;6281397;28;19916;-80
2023/11/15 04:13:44;;;;;;;;;;;;;;;;;;6288857;28;19912;-79
2023/11/15 04:16:44;;;;;;;;;;;;;;;;;;6295882;28;19912;-82
2023/11/15 04:19:45;;;;;;;;;;;;;;;;;;6294509;28;19927;-79
2023/11/15 04:22:45;;;;;;;;;;;;;;;;;;6290813;28;19912;-82
2023/11/15 04:25:45;;;;;;;;;;;;;;;;;;6282983;28;20419;-79
2023/11/15 04:28:45;;;;;;;;;;;;;;;;;;6294241;28;19917;-79
2023/11/15 04:31:45;;;;;;;;;;;;;;;;;;6296029;28;19920;-80
2023/11/15 04:34:46;;;;;;;;;;;;;;;;;;6278707;28;20045;-79
2023/11/15 04:37:46;;;;;;;;;;;;;;;;;;6296857;28;19967;-80
2023/11/15 04:40:46;;;;;;;;;;;;;;;;;;6296166;28;20035;-80
2023/11/15 04:43:46;;;;;;;;;;;;;;;;;;6296240;28;20365;-80
2023/11/15 04:46:46;;;;;;;;;;;;;;;;;;6278121;28;19923;-80
2023/11/15 04:49:46;;;;;;;;;;;;;;;;;;6295603;28;20280;-86
2023/11/15 04:52:47;;;;;;;;;;;;;;;;;;6295773;28;19912;-86
2023/11/15 04:55:47;;;;;;;;;;;;;;;;;;6295627;28;19919;-86
2023/11/15 04:58:47;;;;;;;;;;;;;;;;;;6296661;28;19967;-87
2023/11/15 05:01:47;;;;;;;;;;;;;;;;;;6295550;28;20250;-85
2023/11/15 05:04:47;;;;;;;;;;;;;;;;;;6296098;28;19931;-85
2023/11/15 05:07:48;;;;;;;;;;;;;;;;;;6288058;28;19923;-87
2023/11/15 05:10:48;;;;;;;;;;;;;;;;;;6292190;28;19947;-85
2023/11/15 05:13:48;;;;;;;;;;;;;;;;;;6291202;28;19962;-85
2023/11/15 05:16:48;;;;;;;;;;;;;;;;;;6292195;28;19912;-85
2023/11/15 05:19:48;;;;;;;;;;;;;;;;;;6290818;28;20341;-85
2023/11/15 05:22:48;;;;;;;;;;;;;;;;;;6290873;28;19965;-87
2023/11/15 05:25:48;;;;;;;;;;;;;;;;;;6289274;28;19917;-85
2023/11/15 05:28:49;;;;;;;;;;;;;;;;;;6296296;28;19912;-85
2023/11/15 05:31:49;;;;;;;;;;;;;;;;;;6290232;28;20169;-85
2023/11/15 05:34:49;;;;;;;;;;;;;;;;;;6288450;28;19927;-86
2023/11/15 05:37:50;;;;;;;;;;;;;;;;;;6292346;28;19923;-87
2023/11/15 05:40:50;;;;;;;;;;;;;;;;;;6289711;28;19954;-85
2023/11/15 05:43:50;;;;;;;;;;;;;;;;;;6292022;28;19924;-85
2023/11/15 05:46:50;;;;;;;;;;;;;;;;;;6289724;28;19916;-86
2023/11/15 05:49:50;;;;;;;;;;;;;;;;;;6292097;28;19920;-85
2023/11/15 05:52:52;;;;;;;;;;;;;;;;;;6294733;28;19916;-86
2023/11/15 05:55:52;;;;;;;;;;;;;;;;;;6292660;28;19913;-86
2023/11/15 05:58:52;;;;;;;;;;;;;;;;;;6275340;28;19917;-86
2023/11/15 06:01:54;;;;;;;;;;;;;;;;;;6294023;28;19924;-86
2023/11/15 06:04:55;;;;;;;;;;;;;;;;;;6290497;28;19917;-86
2023/11/15 06:07:55;;;;;;;;;;;;;;;;;;6297167;28;19966;-86
2023/11/15 06:10:55;;;;;;;;;;;;;;;;;;6290021;28;19921;-86
2023/11/15 06:13:56;;;;;;;;;;;;;;;;;;6295239;28;19958;-85
2023/11/15 06:16:56;;;;;;;;;;;;;;;;;;6293990;28;20328;-89
2023/11/15 06:19:57;;;;;;;;;;;;;;;;;;6282464;28;19921;-86
2023/11/15 06:22:57;;;;;;;;;;;;;;;;;;6284636;28;19912;-86
2023/11/15 06:25:57;;;;;;;;;;;;;;;;;;6290126;28;19938;-86
2023/11/15 06:28:59;;;;;;;;;;;;;;;;;;6280488;28;19908;-85
2023/11/15 06:31:59;;;;;;;;;;;;;;;;;;6296904;28;19931;-87
2023/11/15 06:34:59;;;;;;;;;;;;;;;;;;6284815;28;20027;-86
2023/11/15 06:38:01;;;;;;;;;;;;;;;;;;6289153;28;19913;-86
2023/11/15 06:41:01;;;;;;;;;;;;;;;;;;6292409;28;19924;-86
2023/11/15 06:44:03;;;;;;;;;;;;;;;;;;6290019;28;20222;-86
2023/11/15 06:47:03;;;;;;;;;;;;;;;;;;6277509;28;19924;-87
2023/11/15 06:50:07;;;;;;;;;;;;;;;;;;6290012;28;20348;-86
2023/11/15 06:53:07;;;;;;;;;;;;;;;;;;6289443;28;19959;-85
2023/11/15 06:56:08;;;;;;;;;;;;;;;;;;6290335;28;19919;-86
2023/11/15 06:59:08;;;;;;;;;;;;;;;;;;6280617;28;19912;-86
2023/11/15 07:02:08;;;;;;;;;;;;;;;;;;6284932;28;19971;-86
2023/11/15 07:05:10;;;;;;;;;;;;;;;;;;6285346;28;20154;-88
2023/11/15 07:08:11;;;;;;;;;;;;;;;;;;6287070;28;19920;-87
2023/11/15 07:11:12;;;;;;;;;;;;;;;;;;6288248;28;19913;-87
2023/11/15 07:14:12;;;;;;;;;;;;;;;;;;6283502;28;19920;-86
2023/11/15 07:17:12;;;;;;;;;;;;;;;;;;6286087;28;19912;-86
2023/11/15 07:20:14;;;;;;;;;;;;;;;;;;6297025;28;19971;-83
2023/11/15 07:23:15;;;;;;;;;;;;;;;;;;6295638;28;19924;-85
2023/11/15 07:26:15;;;;;;;;;;;;;;;;;;6288679;28;19921;-87
2023/11/15 07:29:18;;;;;;;;;;;;;;;;;;6280015;28;20277;-85
2023/11/15 07:32:18;;;;;;;;;;;;;;;;;;6282940;28;20333;-85
2023/11/15 07:35:19;;;;;;;;;;;;;;;;;;6272959;28;19978;-85
2023/11/15 07:38:19;;;;;;;;;;;;;;;;;;6288731;28;19913;-84
2023/11/15 07:41:19;;;;;;;;;;;;;;;;;;6289245;28;20396;-84
2023/11/15 07:44:19;;;;;;;;;;;;;;;;;;6287869;28;19918;-86
2023/11/15 07:47:19;;;;;;;;;;;;;;;;;;6284610;28;19913;-85
2023/11/15 07:50:20;;;;;;;;;;;;;;;;;;6278931;28;19912;-85
2023/11/15 07:53:21;;;;;;;;;;;;;;;;;;6287856;28;19923;-85
2023/11/15 07:56:23;;;;;;;;;;;;;;;;;;6293151;28;19924;-86
2023/11/15 07:59:24;;;;;;;;;;;;;;;;;;6283481;28;19979;-84
2023/11/15 08:02:25;;;;;;;;;;;;;;;;;;6283145;28;19912;-84
2023/11/15 08:05:26;;;;;;;;;;;;;;;;;;6282147;28;20376;-84
2023/11/15 08:08:27;;;;;;;;;;;;;;;;;;6284581;28;20673;-84
2023/11/15 08:11:27;;;;;;;;;;;;;;;;;;6297640;28;19966;-84
2023/11/15 08:14:29;;;;;;;;;;;;;;;;;;6297010;28;20292;-84
2023/11/15 08:17:29;;;;;;;;;;;;;;;;;;6296772;28;19912;-84
2023/11/15 08:20:29;;;;;;;;;;;;;;;;;;6294387;28;20469;-88
2023/11/15 08:23:30;;;;;;;;;;;;;;;;;;6278067;28;20282;-82
2023/11/15 08:26:31;;;;;;;;;;;;;;;;;;6289306;28;20373;-81
2023/11/15 08:29:31;;;;;;;;;;;;;;;;;;6278098;28;19938;-81
2023/11/15 08:32:33;;;;;;;;;;;;;;;;;;6293318;28;19925;-79
2023/11/15 08:35:33;;;;;;;;;;;;;;;;;;6287929;28;19927;-80
2023/11/15 08:38:33;;;;;;;;;;;;;;;;;;6277067;28;20285;-82
2023/11/15 08:41:34;;;;;;;;;;;;;;;;;;6296304;28;19925;-81
2023/11/15 08:44:37;;;;;;;;;;;;;;;;;;6284367;28;19960;-80
2023/11/15 08:47:37;;;;;;;;;;;;;;;;;;6275748;28;19919;-80
2023/11/15 08:50:37;;;;;;;;;;;;;;;;;;6288530;28;19913;-80
2023/11/15 08:53:38;;;;;;;;;;;;;;;;;;6295495;28;19920;-80
2023/11/15 08:56:40;;;;;;;;;;;;;;;;;;6293537;28;20304;-81
2023/11/15 08:59:40;;;;;;;;;;;;;;;;;;6276088;28;19929;-83
2023/11/15 09:02:46;;;;;;;;;;;;;;;;;;6290558;28;19913;-80
2023/11/15 09:05:47;;;;;;;;;;;;;;;;;;6308912;28;19982;-80
2023/11/15 09:08:47;;;;;;;;;;;;;;;;;;6297219;28;19913;-80
2023/11/15 09:11:50;;;;;;;;;;;;;;;;;;6283100;28;19931;-80
2023/11/15 09:14:51;;;;;;;;;;;;;;;;;;6280387;28;19923;-80
2023/11/15 09:17:52;;;;;;;;;;;;;;;;;;6280639;28;20054;-80
2023/11/15 09:20:52;;;;;;;;;;;;;;;;;;6281704;28;20259;-80
2023/11/15 09:23:52;;;;;;;;;;;;;;;;;;6288329;28;20005;-80
2023/11/15 09:26:52;;;;;;;;;;;;;;;;;;6295341;28;19940;-80
2023/11/15 09:29:53;;;;;;;;;;;;;;;;;;6282982;28;19912;-80
2023/11/15 09:32:53;;;;;;;;;;;;;;;;;;6301526;28;19913;-80
2023/11/15 09:35:53;;;;;;;;;;;;;;;;;;6295186;28;20321;-81
2023/11/15 09:38:56;;;;;;;;;;;;;;;;;;6281803;28;19921;-80
2023/11/15 09:41:57;;;;;;;;;;;;;;;;;;6294482;28;19943;-85
2023/11/15 09:44:57;;;;;;;;;;;;;;;;;;6297088;28;19999;-84
2023/11/15 09:48:00;;;;;;;;;;;;;;;;;;6297767;28;19912;-84
2023/11/15 09:51:01;;;;;;;;;;;;;;;;;;6289205;28;19995;-84
2023/11/15 09:54:06;;;;;;;;;;;;;;;;;;6291740;28;19913;-83
2023/11/15 09:57:06;;;;;;;;;;;;;;;;;;6293544;28;19912;-83
2023/11/15 10:00:11;;;;;;;;;;;;;;;;;;6296232;28;20305;-83
2023/11/15 10:03:11;;;;;;;;;;;;;;;;;;6297024;28;19909;-81
2023/11/15 10:06:12;;;;;;;;;;;;;;;;;;6286452;28;19952;-80
2023/11/15 10:09:12;;;;;;;;;;;;;;;;;;6296872;28;19920;-80
2023/11/15 10:12:12;;;;;;;;;;;;;;;;;;6286963;28;20424;-81
2023/11/15 10:15:13;;;;;;;;;;;;;;;;;;6307687;28;19913;-80
2023/11/15 10:18:14;;;;;;;;;;;;;;;;;;6291406;28;19924;-81
2023/11/15 10:21:14;;;;;;;;;;;;;;;;;;6271913;28;20436;-81
2023/11/15 10:24:14;;;;;;;;;;;;;;;;;;6296257;28;19923;-80
2023/11/15 10:27:14;;;;;;;;;;;;;;;;;;6296646;28;19999;-80
2023/11/15 10:30:16;;;;;;;;;;;;;;;;;;6293449;28;19908;-82
2023/11/15 10:33:16;;;;;;;;;;;;;;;;;;6276536;28;20007;-85
2023/11/15 10:36:16;;;;;;;;;;;;;;;;;;6286583;28;19909;-86
2023/11/15 10:39:16;;;;;;;;;;;;;;;;;;6292771;28;19920;-85
2023/11/15 10:42:18;;;;;;;;;;;;;;;;;;6295825;28;19987;-86
2023/11/15 10:45:19;;;;;;;;;;;;;;;;;;6273193;28;19913;-82
2023/11/15 10:48:21;;;;;;;;;;;;;;;;;;6291038;28;19919;-82
2023/11/15 10:51:21;;;;;;;;;;;;;;;;;;6286184;28;19916;-81
2023/11/15 10:54:21;;;;;;;;;;;;;;;;;;6283787;28;19995;-81
2023/11/15 10:57:21;;;;;;;;;;;;;;;;;;6278978;28;19956;-82
2023/11/15 11:00:22;;;;;;;;;;;;;;;;;;6298725;28;19921;-81
2023/11/15 11:03:24;;;;;;;;;;;;;;;;;;6298549;28;19962;-82
2023/11/15 11:06:25;;;;;;;;;;;;;;;;;;6298860;28;19916;-83
2023/11/15 11:09:25;;;;;;;;;;;;;;;;;;6297281;28;20277;-82
2023/11/15 11:12:27;;;;;;;;;;;;;;;;;;6290249;28;19912;-84
2023/11/15 11:15:30;;;;;;;;;;;;;;;;;;6299461;28;19908;-82
2023/11/15 11:18:30;;;;;;;;;;;;;;;;;;6292599;28;20003;-81
2023/11/15 11:21:30;;;;;;;;;;;;;;;;;;6275973;28;20410;-80
2023/11/15 11:24:31;;;;;;;;;;;;;;;;;;6294554;28;20416;-81
2023/11/15 11:27:32;;;;;;;;;;;;;;;;;;6298539;28;19912;-80
2023/11/15 11:30:32;;;;;;;;;;;;;;;;;;6299636;28;19908;-81
2023/11/15 11:33:32;;;;;;;;;;;;;;;;;;6296624;28;19920;-81
2023/11/15 11:36:32;;;;;;;;;;;;;;;;;;6298811;28;19909;-85
2023/11/15 11:39:32;;;;;;;;;;;;;;;;;;6297363;28;20450;-87
2023/11/15 11:42:33;;;;;;;;;;;;;;;;;;6296342;28;19961;-87
2023/11/15 11:45:33;;;;;;;;;;;;;;;;;;6304695;28;19908;-88
2023/11/15 11:48:33;;;;;;;;;;;;;;;;;;6307959;28;19912;-88
2023/11/15 11:51:33;;;;;;;;;;;;;;;;;;6297769;28;20011;-88
2023/11/15 11:54:34;;;;;;;;;;;;;;;;;;6295134;28;19913;-88
2023/11/15 11:57:34;;;;;;;;;;;;;;;;;;6284689;28;19916;-89
2023/11/15 12:00:34;;;;;;;;;;;;;;;;;;6275328;28;19912;-83
2023/11/15 12:03:35;;;;;;;;;;;;;;;;;;6291441;28;19917;-90
2023/11/15 12:06:35;;;;;;;;;;;;;;;;;;6293110;28;19960;-83
2023/11/15 12:09:39;;;;;;;;;;;;;;;;;;6306366;28;19914;-84
2023/11/15 12:12:40;;;;;;;;;;;;;;;;;;6285216;28;19913;-84
2023/11/15 12:15:43;;;;;;;;;;;;;;;;;;6293819;28;19924;-84
2023/11/15 12:18:43;;;;;;;;;;;;;;;;;;6279022;28;19955;-84
2023/11/15 12:21:43;;;;;;;;;;;;;;;;;;6272989;28;19927;-83
2023/11/15 12:24:45;;;;;;;;;;;;;;;;;;6273105;28;19921;-84
2023/11/15 12:27:45;;;;;;;;;;;;;;;;;;6291102;28;19908;-83
2023/11/15 12:30:45;;;;;;;;;;;;;;;;;;6293276;28;19921;-83
2023/11/15 12:33:45;;;;;;;;;;;;;;;;;;6284770;28;19909;-84
2023/11/15 12:36:45;;;;;;;;;;;;;;;;;;6282395;28;19912;-83
2023/11/15 12:39:45;;;;;;;;;;;;;;;;;;6293376;28;19924;-82
2023/11/15 12:42:47;;;;;;;;;;;;;;;;;;6289378;28;20020;-83
2023/11/15 12:45:48;;;;;;;;;;;;;;;;;;6295357;28;19920;-84
2023/11/15 12:48:48;;;;;;;;;;;;;;;;;;6301967;28;20526;-83
2023/11/15 12:51:48;;;;;;;;;;;;;;;;;;6295924;28;19931;-82
2023/11/15 12:54:48;;;;;;;;;;;;;;;;;;6296035;28;19985;-85
2023/11/15 12:57:48;;;;;;;;;;;;;;;;;;6298122;28;19940;-84
2023/11/15 13:00:49;;;;;;;;;;;;;;;;;;6295105;28;19923;-84
2023/11/15 13:03:50;;;;;;;;;;;;;;;;;;6295271;28;19923;-85
2023/11/15 13:06:50;;;;;;;;;;;;;;;;;;6295330;28;19960;-84
2023/11/15 13:09:50;;;;;;;;;;;;;;;;;;6279099;28;19923;-84
2023/11/15 13:12:50;;;;;;;;;;;;;;;;;;6296656;28;20295;-83
2023/11/15 13:15:50;;;;;;;;;;;;;;;;;;6289067;28;19913;-84
2023/11/15 13:18:50;;;;;;;;;;;;;;;;;;6299885;28;20298;-85
2023/11/15 13:21:50;;;;;;;;;;;;;;;;;;6293945;28;20350;-84
2023/11/15 13:24:50;;;;;;;;;;;;;;;;;;6296780;28;20082;-83
2023/11/15 13:27:51;;;;;;;;;;;;;;;;;;6295716;28;19963;-83
2023/11/15 13:30:51;;;;;;;;;;;;;;;;;;6311089;28;19916;-83
2023/11/15 13:33:53;;;;;;;;;;;;;;;;;;6291720;28;19956;-83
2023/11/15 13:36:53;;;;;;;;;;;;;;;;;;6294228;28;19957;-83
2023/11/15 13:39:54;;;;;;;;;;;;;;;;;;6294840;28;19924;-84
2023/11/15 13:42:58;;;;;;;;;;;;;;;;;;6284433;28;19939;-82
2023/11/15 13:45:58;;;;;;;;;;;;;;;;;;6276811;28;19935;-82
2023/11/15 13:49:03;;;;;;;;;;;;;;;;;;6297234;28;20391;-80
2023/11/15 13:52:03;;;;;;;;;;;;;;;;;;6292711;28;19963;-80
2023/11/15 13:55:03;;;;;;;;;;;;;;;;;;6288421;28;19912;-81
2023/11/15 13:58:03;;;;;;;;;;;;;;;;;;6272034;28;19971;-81
2023/11/15 14:01:04;;;;;;;;;;;;;;;;;;6285236;28;20361;-81
2023/11/15 14:04:04;;;;;;;;;;;;;;;;;;6292598;28;19954;-81
2023/11/15 14:07:04;;;;;;;;;;;;;;;;;;6271897;28;19920;-81
2023/11/15 14:10:07;;;;;;;;;;;;;;;;;;6287815;28;19909;-81
2023/11/15 14:13:08;;;;;;;;;;;;;;;;;;6311391;28;20300;-81
2023/11/15 14:16:08;;;;;;;;;;;;;;;;;;6294602;28;19908;-81
2023/11/15 14:19:09;;;;;;;;;;;;;;;;;;6296137;28;20003;-81
2023/11/15 14:22:11;;;;;;;;;;;;;;;;;;6309199;28;20032;-81
2023/11/15 14:25:21;;;;;;;;;;;;;;;;;;6292143;28;19947;-81
2023/11/15 14:28:21;;;;;;;;;;;;;;;;;;6297842;28;19967;-82
2023/11/15 14:31:21;;;;;;;;;;;;;;;;;;6298811;28;19913;-81
2023/11/15 14:34:21;;;;;;;;;;;;;;;;;;6299080;28;20407;-81
2023/11/15 14:37:21;;;;;;;;;;;;;;;;;;6296330;28;20463;-81
2023/11/15 14:40:22;;;;;;;;;;;;;;;;;;6300212;28;20304;-81
2023/11/15 14:43:22;;;;;;;;;;;;;;;;;;6281476;28;19919;-81
2023/11/15 14:46:25;;;;;;;;;;;;;;;;;;6297070;28;20322;-81
2023/11/15 14:49:25;;;;;;;;;;;;;;;;;;6288828;28;19951;-82
2023/11/15 14:52:26;;;;;;;;;;;;;;;;;;6296853;28;19913;-82
2023/11/15 14:55:31;;;;;;;;;;;;;;;;;;6298536;28;19917;-81
2023/11/15 14:58:31;;;;;;;;;;;;;;;;;;6301187;28;19913;-81
2023/11/15 15:01:31;;;;;;;;;;;;;;;;;;6298561;28;19931;-82
2023/11/15 15:04:34;;;;;;;;;;;;;;;;;;6297049;28;19916;-82
2023/11/15 15:07:34;;;;;;;;;;;;;;;;;;6299311;28;19923;-82
2023/11/15 15:10:36;;;;;;;;;;;;;;;;;;6289802;28;20015;-82
2023/11/15 15:13:36;;;;;;;;;;;;;;;;;;6298170;28;19912;-81
2023/11/15 15:16:37;;;;;;;;;;;;;;;;;;6300117;28;19909;-80
2023/11/15 15:19:37;;;;;;;;;;;;;;;;;;6290695;28;19912;-81
2023/11/15 15:22:37;;;;;;;;;;;;;;;;;;6290211;28;19920;-81
2023/11/15 15:25:38;;;;;;;;;;;;;;;;;;6294928;28;21356;-81
2023/11/15 15:28:38;;;;;;;;;;;;;;;;;;6297364;28;19913;-81
2023/11/15 15:31:38;;;;;;;;;;;;;;;;;;6311575;28;20025;-81
2023/11/15 15:34:40;;;;;;;;;;;;;;;;;;6305627;28;19912;-81
2023/11/15 15:37:40;;;;;;;;;;;;;;;;;;6295664;28;20030;-80
2023/11/15 15:40:40;;;;;;;;;;;;;;;;;;6288507;28;20380;-81
2023/11/15 15:43:40;;;;;;;;;;;;;;;;;;6275692;28;19909;-81
2023/11/15 15:46:41;;;;;;;;;;;;;;;;;;6274525;28;20285;-81
2023/11/15 15:49:46;;;;;;;;;;;;;;;;;;6289177;28;19919;-81
2023/11/15 15:52:47;;;;;;;;;;;;;;;;;;6299342;28;20039;-81
2023/11/15 15:55:47;;;;;;;;;;;;;;;;;;6298882;28;19912;-81
2023/11/15 15:58:47;;;;;;;;;;;;;;;;;;6297788;28;19995;-82
2023/11/15 16:01:48;;;;;;;;;;;;;;;;;;6312848;28;19943;-81
2023/11/15 16:04:48;;;;;;;;;;;;;;;;;;6295943;28;19966;-81
2023/11/15 16:07:48;;;;;;;;;;;;;;;;;;6298584;28;19931;-81
2023/11/15 16:10:50;;;;;;;;;;;;;;;;;;6290957;28;20365;-81
2023/11/15 16:13:50;;;;;;;;;;;;;;;;;;6294514;28;19919;-82
2023/11/15 16:16:51;;;;;;;;;;;;;;;;;;6286647;28;19917;-81
2023/11/15 16:19:51;;;;;;;;;;;;;;;;;;6286893;28;19924;-81
2023/11/15 16:22:52;;;;;;;;;;;;;;;;;;6287089;28;19924;-81
2023/11/15 16:25:53;;;;;;;;;;;;;;;;;;6308037;28;19916;-81
2023/11/15 16:28:53;;;;;;;;;;;;;;;;;;6292593;28;19921;-81
2023/11/15 16:31:53;;;;;;;;;;;;;;;;;;6289958;28;20266;-82
2023/11/15 16:34:55;;;;;;;;;;;;;;;;;;6294448;28;20027;-82
2023/11/15 16:37:55;;;;;;;;;;;;;;;;;;6290434;28;19912;-82
2023/11/15 16:40:55;;;;;;;;;;;;;;;;;;6297921;28;20074;-81
2023/11/15 16:43:56;;;;;;;;;;;;;;;;;;6296481;28;19920;-81
2023/11/15 16:46:56;;;;;;;;;;;;;;;;;;6297508;28;20372;-81
2023/11/15 16:49:58;;;;;;;;;;;;;;;;;;6296473;28;19909;-81
2023/11/15 16:52:59;;;;;;;;;;;;;;;;;;6285097;28;19980;-81
2023/11/15 16:55:59;;;;;;;;;;;;;;;;;;6289350;28;20344;-81
2023/11/15 16:59:00;;;;;;;;;;;;;;;;;;6285493;28;19923;-81
2023/11/15 17:02:00;;;;;;;;;;;;;;;;;;6282800;28;20433;-81
2023/11/15 17:05:00;;;;;;;;;;;;;;;;;;6283054;28;20351;-81
2023/11/15 17:08:00;;;;;;;;;;;;;;;;;;6293274;28;20016;-82
2023/11/15 17:11:01;;;;;;;;;;;;;;;;;;6293383;28;19919;-82
2023/11/15 17:14:01;;;;;;;;;;;;;;;;;;6287923;28;19920;-82
2023/11/15 17:17:04;;;;;;;;;;;;;;;;;;6294552;28;19920;-82
2023/11/15 17:20:05;;;;;;;;;;;;;;;;;;6296532;28;20422;-82
2023/11/15 17:23:08;;;;;;;;;;;;;;;;;;6301605;28;19922;-81
2023/11/15 17:26:08;;;;;;;;;;;;;;;;;;6322731;28;19999;-81
2023/11/15 17:29:09;;;;;;;;;;;;;;;;;;6300932;28;19909;-81
2023/11/15 17:32:09;;;;;;;;;;;;;;;;;;6278486;28;19913;-81
2023/11/15 17:35:10;;;;;;;;;;;;;;;;;;6282020;28;19971;-82
2023/11/15 17:38:11;;;;;;;;;;;;;;;;;;6290433;28;19913;-82
2023/11/15 17:41:13;;;;;;;;;;;;;;;;;;5949607;28;10000002;-82
2023/11/15 17:44:20;;;;;;;;;;;;;;;;;;6293968;28;20265;-82
2023/11/15 17:47:23;;;;;;;;;;;;;;;;;;6290631;28;19931;-82
2023/11/15 17:50:24;;;;;;;;;;;;;;;;;;6305560;28;20014;-82
2023/11/15 17:53:24;;;;;;;;;;;;;;;;;;6294142;28;19919;-82
2023/11/15 17:56:24;;;;;;;;;;;;;;;;;;6306577;28;19913;-81
2023/11/15 17:59:24;;;;;;;;;;;;;;;;;;6292158;28;19916;-82
2023/11/15 18:02:24;;;;;;;;;;;;;;;;;;6294980;28;19917;-82
2023/11/15 18:05:24;;;;;;;;;;;;;;;;;;5932662;28;9999621;-82
2023/11/15 18:08:27;;;;;;;;;;;;;;;;;;6291092;28;20007;-81
2023/11/15 18:11:28;;;;;;;;;;;;;;;;;;6302259;28;19912;-81
2023/11/15 18:14:28;;;;;;;;;;;;;;;;;;6291602;28;19916;-81
2023/11/15 18:17:28;;;;;;;;;;;;;;;;;;6299716;28;20024;-81
2023/11/15 18:20:29;;;;;;;;;;;;;;;;;;6301158;28;19920;-82
2023/11/15 18:23:29;;;;;;;;;;;;;;;;;;6318397;28;19916;-82
2023/11/15 18:26:34;;;;;;;;;;;;;;;;;;6339239;28;20009;-81
2023/11/15 18:29:34;;;;;;;;;;;;;;;;;;6325988;28;19912;-82
2023/11/15 18:32:35;;;;;;;;;;;;;;;;;;6314804;28;19927;-81
2023/11/15 18:35:35;;;;;;;;;;;;;;;;;;6312747;28;20385;-82
2023/11/15 18:38:35;;;;;;;;;;;;;;;;;;6317515;28;19931;-81
2023/11/15 18:41:36;;;;;;;;;;;;;;;;;;6326079;28;19969;-81
2023/11/15 18:44:36;;;;;;;;;;;;;;;;;;6321521;28;19912;-81
2023/11/15 18:47:38;;;;;;;;;;;;;;;;;;6320949;28;19916;-81
2023/11/15 18:50:38;;;;;;;;;;;;;;;;;;6323539;28;19912;-81
2023/11/15 18:53:39;;;;;;;;;;;;;;;;;;6318658;28;19924;-81
2023/11/15 18:56:39;;;;;;;;;;;;;;;;;;6304840;28;20385;-81
2023/11/15 18:59:39;;;;;;;;;;;;;;;;;;6323820;28;20019;-81
2023/11/15 19:02:41;;;;;;;;;;;;;;;;;;6322281;28;19924;-82
2023/11/15 19:05:42;;;;;;;;;;;;;;;;;;6319791;28;20288;-81
2023/11/15 19:08:42;;;;;;;;;;;;;;;;;;6321568;28;19920;-81
2023/11/15 19:11:42;;;;;;;;;;;;;;;;;;6320025;28;19951;-82
2023/11/15 19:14:42;;;;;;;;;;;;;;;;;;6322007;28;19916;-81
2023/11/15 19:17:48;;;;;;;;;;;;;;;;;;6318733;28;19951;-82
2023/11/15 19:20:48;;;;;;;;;;;;;;;;;;6319225;28;19920;-81
2023/11/15 19:23:48;;;;;;;;;;;;;;;;;;6317698;28;20307;-81
2023/11/15 19:26:49;;;;;;;;;;;;;;;;;;6331966;28;20369;-82
2023/11/15 19:29:50;;;;;;;;;;;;;;;;;;6319353;28;20411;-81
2023/11/15 19:32:51;;;;;;;;;;;;;;;;;;6307859;28;20388;-81
2023/11/15 19:35:51;;;;;;;;;;;;;;;;;;6319657;28;20014;-81
2023/11/15 19:38:52;;;;;;;;;;;;;;;;;;6336860;28;19923;-81
2023/11/15 19:41:52;;;;;;;;;;;;;;;;;;6317096;28;20376;-81
2023/11/15 19:44:52;;;;;;;;;;;;;;;;;;6313545;27;20441;-81
2023/11/15 19:47:52;;;;;;;;;;;;;;;;;;6303142;28;19924;-81
2023/11/15 19:50:52;;;;;;;;;;;;;;;;;;6302163;28;19963;-81
2023/11/15 19:53:53;;;;;;;;;;;;;;;;;;6303229;28;19912;-81
2023/11/15 19:56:54;;;;;;;;;;;;;;;;;;5966729;27;9999787;-81
2023/11/15 19:59:58;;;;;;;;;;;;;;;;;;6310319;28;19931;-81
2023/11/15 20:02:58;;;;;;;;;;;;;;;;;;6314752;28;20307;-81
2023/11/15 20:05:58;;;;;;;;;;;;;;;;;;6302131;28;19916;-81
2023/11/15 20:08:58;;;;;;;;;;;;;;;;;;6308555;28;19923;-82
2023/11/15 20:11:59;;;;;;;;;;;;;;;;;;6298973;28;19967;-82
2023/11/15 20:14:59;;;;;;;;;;;;;;;;;;6297418;28;20010;-82
2023/11/15 20:17:59;;;;;;;;;;;;;;;;;;6290742;28;19959;-81
2023/11/15 20:21:01;;;;;;;;;;;;;;;;;;6310753;28;19969;-82
2023/11/15 20:24:01;;;;;;;;;;;;;;;;;;6295735;28;20246;-81
2023/11/15 20:27:03;;;;;;;;;;;;;;;;;;6312513;28;19936;-82
2023/11/15 20:30:03;;;;;;;;;;;;;;;;;;6293325;28;19920;-81
2023/11/15 20:33:03;;;;;;;;;;;;;;;;;;6313890;27;19948;-82